Time;durP1;ratioP1;P1;durP2;ratioP2;P2;SDS_P1;SDS_P2;PMS_P1;PMS_P2;Temp;Humidity;BMP_temperature;BMP_pressure;BME280_temperature;BME280_humidity;BME280_pressure;Samples;Min_cycle;Max_cycle;Signal;HPM_P1;HPM_P2
2021/10/06 07:29:16;;;;;;;;;;;;;;;;;;4931882;29;20278;-88
2021/10/06 07:32:10;;;;;;;;;;;;;;;;;;4929664;28;19926;-88
2021/10/06 07:34:56;;;;;;;;;;;;;;;;;;4937680;28;19926;-87
2021/10/06 07:37:42;;;;;;;;;;;;;;;;;;4932909;28;19926;-87
2021/10/06 07:43:48;;;;;;;;;;;;;;;;;;4932439;28;19934;-87
2021/10/06 08:23:02;;;;;;;;;;;;;;;;;;4974386;28;19926;-89
2021/10/06 09:27:41;;;;;;;;;;;;;;;;;;4972305;28;20320;-87
2021/10/06 09:30:11;;;;;;;;;;;;;;;;;;4952435;28;19926;-82
2021/10/06 09:32:41;;;;;;;;;;;;;;;;;;4959688;28;20013;-85
2021/10/06 09:35:11;;;;;;;;;;;;;;;;;;4935888;28;19934;-83
2021/10/06 09:37:40;;;;;;;;;;;;;;;;;;4935499;29;19926;-82
2021/10/06 09:40:09;;;;;;;;;;;;;;;;;;4939074;29;19926;-82
2021/10/06 09:42:46;;;;;;;;;;;;;;;;;;4920886;29;19934;-82
2021/10/06 09:45:24;;;;;;;;;;;;;;;;;;4939349;28;19930;-81
2021/10/06 09:48:05;;;;;;;;;;;;;;;;;;4937447;29;19930;-80
2021/10/06 09:50:34;;;;;;;;;;;;;;;;;;4938807;29;19930;-85
2021/10/06 09:53:10;;;;;;;;;;;;;;;;;;4940481;29;19995;-81
2021/10/06 09:55:39;;;;;;;;;;;;;;;;;;4937165;29;19934;-81
2021/10/06 09:58:08;;;;;;;;;;;;;;;;;;4956442;28;19934;-85
2021/10/06 10:00:37;;;;;;;;;;;;;;;;;;4914635;29;20388;-82
2021/10/06 10:03:06;;;;;;;;;;;;;;;;;;4940407;28;19926;-81
2021/10/06 10:05:36;;;;;;;;;;;;;;;;;;4943748;29;19937;-83
2021/10/06 10:08:05;;;;;;;;;;;;;;;;;;4926624;28;20393;-82
2021/10/06 10:10:34;;;;;;;;;;;;;;;;;;4938410;29;19934;-80
2021/10/06 10:13:02;;;;;;;;;;;;;;;;;;4949471;28;19938;-82
2021/10/06 10:15:37;;;;;;;;;;;;;;;;;;4953671;28;20303;-84
2021/10/06 10:18:06;;;;;;;;;;;;;;;;;;4915100;29;19931;-82
2021/10/06 10:20:44;;;;;;;;;;;;;;;;;;4921367;28;20394;-82
2021/10/06 10:23:17;;;;;;;;;;;;;;;;;;4917006;28;19927;-82
2021/10/06 10:25:46;;;;;;;;;;;;;;;;;;4916864;28;19930;-82
2021/10/06 10:28:15;;;;;;;;;;;;;;;;;;4929151;29;20309;-82
2021/10/06 10:30:59;;;;;;;;;;;;;;;;;;4936900;29;20293;-82
2021/10/06 10:33:38;;;;;;;;;;;;;;;;;;4934786;28;19930;-83
2021/10/06 10:36:07;;;;;;;;;;;;;;;;;;4950821;28;19926;-84
2021/10/06 10:38:38;;;;;;;;;;;;;;;;;;4924026;29;19935;-83
2021/10/06 10:41:37;;;;;;;;;;;;;;;;;;4916806;29;19926;-89
2021/10/06 10:44:11;;;;;;;;;;;;;;;;;;4922263;29;19935;-83
2021/10/06 10:46:55;;;;;;;;;;;;;;;;;;4933963;28;19926;-86
2021/10/06 10:49:33;;;;;;;;;;;;;;;;;;4936183;29;19926;-85
2021/10/06 10:52:01;;;;;;;;;;;;;;;;;;4917946;29;19937;-84
2021/10/06 10:54:30;;;;;;;;;;;;;;;;;;4936977;28;19937;-83
2021/10/06 10:56:58;;;;;;;;;;;;;;;;;;4938745;29;19927;-82
2021/10/06 10:59:32;;;;;;;;;;;;;;;;;;4935808;28;20445;-82
2021/10/06 11:02:02;;;;;;;;;;;;;;;;;;4936229;28;19930;-83
2021/10/06 11:04:37;;;;;;;;;;;;;;;;;;4919108;28;19930;-86
2021/10/06 11:07:12;;;;;;;;;;;;;;;;;;4933847;29;20345;-82
2021/10/06 11:09:45;;;;;;;;;;;;;;;;;;4936020;29;20264;-84
2021/10/06 11:12:33;;;;;;;;;;;;;;;;;;4937673;29;19927;-84
2021/10/06 11:15:07;;;;;;;;;;;;;;;;;;4913952;29;19949;-82
2021/10/06 11:17:35;;;;;;;;;;;;;;;;;;4933278;28;19941;-85
2021/10/06 11:20:06;;;;;;;;;;;;;;;;;;4932445;29;20540;-85
2021/10/06 11:22:44;;;;;;;;;;;;;;;;;;4935227;29;19934;-86
2021/10/06 11:25:14;;;;;;;;;;;;;;;;;;4919820;29;19933;-81
2021/10/06 11:27:46;;;;;;;;;;;;;;;;;;4932231;28;19930;-86
2021/10/06 11:30:14;;;;;;;;;;;;;;;;;;4973370;28;19921;-85
2021/10/06 11:32:46;;;;;;;;;;;;;;;;;;4953308;28;19934;-84
2021/10/06 11:35:16;;;;;;;;;;;;;;;;;;4922832;29;19926;-83
2021/10/06 11:37:44;;;;;;;;;;;;;;;;;;4941400;29;19927;-83
2021/10/06 11:40:14;;;;;;;;;;;;;;;;;;4925940;29;19954;-85
2021/10/06 11:42:43;;;;;;;;;;;;;;;;;;4956620;28;19941;-83
2021/10/06 11:45:16;;;;;;;;;;;;;;;;;;4942613;28;19942;-84
2021/10/06 11:47:45;;;;;;;;;;;;;;;;;;4935071;29;19927;-86
2021/10/06 11:50:13;;;;;;;;;;;;;;;;;;4937283;28;19933;-85
2021/10/06 11:52:43;;;;;;;;;;;;;;;;;;4955038;28;20301;-87
2021/10/06 11:55:11;;;;;;;;;;;;;;;;;;4918320;28;20317;-84
2021/10/06 11:57:40;;;;;;;;;;;;;;;;;;4934372;29;20300;-85
2021/10/06 12:00:14;;;;;;;;;;;;;;;;;;4924586;28;20320;-84
2021/10/06 12:02:44;;;;;;;;;;;;;;;;;;4920355;28;19935;-86
2021/10/06 12:05:12;;;;;;;;;;;;;;;;;;4921697;28;19931;-87
2021/10/06 12:07:43;;;;;;;;;;;;;;;;;;4953516;28;19934;-86
2021/10/06 12:10:13;;;;;;;;;;;;;;;;;;4938010;28;20032;-88
2021/10/06 12:12:43;;;;;;;;;;;;;;;;;;4916889;29;19927;-85
2021/10/06 12:15:13;;;;;;;;;;;;;;;;;;4926166;28;19926;-82
2021/10/06 12:17:42;;;;;;;;;;;;;;;;;;4956666;28;19926;-86
2021/10/06 12:20:12;;;;;;;;;;;;;;;;;;4939564;28;19935;-86
2021/10/06 12:22:42;;;;;;;;;;;;;;;;;;4922176;29;19933;-83
2021/10/06 12:25:15;;;;;;;;;;;;;;;;;;4928770;29;19934;-86
2021/10/06 12:27:48;;;;;;;;;;;;;;;;;;4919417;28;19926;-86
2021/10/06 12:30:27;;;;;;;;;;;;;;;;;;4918418;29;19937;-87
2021/10/06 12:33:19;;;;;;;;;;;;;;;;;;4926606;28;19927;-89
2021/10/06 12:36:08;;;;;;;;;;;;;;;;;;4921665;28;20463;-85
2021/10/06 12:38:40;;;;;;;;;;;;;;;;;;4928930;29;19932;-83
2021/10/06 12:41:14;;;;;;;;;;;;;;;;;;4933244;29;19927;-84
2021/10/06 12:43:43;;;;;;;;;;;;;;;;;;4936462;29;19927;-84
2021/10/06 12:46:15;;;;;;;;;;;;;;;;;;4934011;29;19931;-85
2021/10/06 12:48:48;;;;;;;;;;;;;;;;;;4939383;29;19927;-86
2021/10/06 12:51:27;;;;;;;;;;;;;;;;;;4940576;28;19933;-86
2021/10/06 12:54:00;;;;;;;;;;;;;;;;;;4935748;28;19930;-85
2021/10/06 12:56:35;;;;;;;;;;;;;;;;;;4939620;28;19934;-86
2021/10/06 12:59:08;;;;;;;;;;;;;;;;;;4918264;29;20419;-84
2021/10/06 13:01:39;;;;;;;;;;;;;;;;;;4934417;29;19926;-86
2021/10/06 13:04:11;;;;;;;;;;;;;;;;;;4917384;29;20038;-88
2021/10/06 13:06:48;;;;;;;;;;;;;;;;;;4918764;29;19934;-88
2021/10/06 13:09:33;;;;;;;;;;;;;;;;;;4921192;28;20537;-88
2021/10/06 13:12:15;;;;;;;;;;;;;;;;;;4933890;29;19934;-87
2021/10/06 16:41:57;;;;;;;;;;;;;;;;;;4962126;28;19926;-87
2021/10/06 16:44:41;;;;;;;;;;;;;;;;;;4940222;28;19940;-85
2021/10/06 16:47:10;;;;;;;;;;;;;;;;;;4920342;29;19926;-87
2021/10/06 16:49:39;;;;;;;;;;;;;;;;;;4921950;29;19933;-84
2021/10/06 16:52:11;;;;;;;;;;;;;;;;;;4933796;29;19950;-87
2021/10/06 16:54:42;;;;;;;;;;;;;;;;;;4913957;29;19926;-88
2021/10/06 16:57:13;;;;;;;;;;;;;;;;;;4932031;29;19927;-88
2021/10/06 16:59:41;;;;;;;;;;;;;;;;;;4921298;29;19927;-84
2021/10/06 17:02:10;;;;;;;;;;;;;;;;;;4919867;29;19930;-88
2021/10/06 17:04:44;;;;;;;;;;;;;;;;;;4930133;29;19934;-88
2021/10/06 17:07:12;;;;;;;;;;;;;;;;;;4914925;29;19934;-87
2021/10/06 17:09:49;;;;;;;;;;;;;;;;;;4921217;29;19941;-86
2021/10/06 17:12:33;;;;;;;;;;;;;;;;;;4918061;29;19926;-86
2021/10/06 17:15:12;;;;;;;;;;;;;;;;;;4930366;29;19926;-87
2021/10/06 17:17:42;;;;;;;;;;;;;;;;;;4917122;29;19930;-87
2021/10/06 17:20:11;;;;;;;;;;;;;;;;;;4919566;29;19934;-87
2021/10/06 17:22:40;;;;;;;;;;;;;;;;;;4919290;28;19941;-88
2021/10/06 17:41:56;;;;;;;;;;;;;;;;;;4889340;29;19927;-87
2021/10/06 17:44:34;;;;;;;;;;;;;;;;;;4888362;29;19927;-88
2021/10/06 17:47:25;;;;;;;;;;;;;;;;;;4880523;29;19927;-89
2021/10/06 17:52:52;;;;;;;;;;;;;;;;;;4891817;29;19934;-87
2021/10/06 17:55:45;;;;;;;;;;;;;;;;;;4904405;29;20338;-88
2021/10/06 17:58:38;;;;;;;;;;;;;;;;;;4910650;29;19927;-88
2021/10/06 18:01:21;;;;;;;;;;;;;;;;;;4883984;29;19950;-86
2021/10/06 18:04:17;;;;;;;;;;;;;;;;;;4893813;29;19927;-89
2021/10/06 18:07:09;;;;;;;;;;;;;;;;;;4944460;29;19927;-87
2021/10/06 18:13:22;;;;;;;;;;;;;;;;;;4926987;29;19930;-89
2021/10/06 18:15:56;;;;;;;;;;;;;;;;;;4915310;29;19927;-86
2021/10/06 18:18:27;;;;;;;;;;;;;;;;;;4909210;29;19933;-88
2021/10/06 18:21:01;;;;;;;;;;;;;;;;;;4908989;29;20286;-89
2021/10/06 18:24:22;;;;;;;;;;;;;;;;;;4919239;29;20149;-88
2021/10/06 19:37:54;;;;;;;;;;;;;;;;;;4969928;28;19926;-83
2021/10/06 19:40:23;;;;;;;;;;;;;;;;;;4970450;28;19957;-83
2021/10/06 19:42:51;;;;;;;;;;;;;;;;;;4957359;28;19927;-87
2021/10/06 19:45:20;;;;;;;;;;;;;;;;;;4945030;29;19933;-85
2021/10/06 19:47:48;;;;;;;;;;;;;;;;;;4949048;28;19929;-85
2021/10/06 19:50:17;;;;;;;;;;;;;;;;;;4980445;28;19937;-84
2021/10/06 19:52:45;;;;;;;;;;;;;;;;;;4944935;28;19942;-83
2021/10/06 19:55:16;;;;;;;;;;;;;;;;;;4945732;28;19927;-86
2021/10/06 19:57:47;;;;;;;;;;;;;;;;;;4958734;28;20321;-82
2021/10/06 20:00:16;;;;;;;;;;;;;;;;;;4938795;28;19933;-85
2021/10/06 20:02:44;;;;;;;;;;;;;;;;;;4955823;28;19926;-83
2021/10/06 20:05:12;;;;;;;;;;;;;;;;;;4948328;28;19926;-85
2021/10/06 20:07:41;;;;;;;;;;;;;;;;;;4948903;28;19929;-85
2021/10/06 20:10:10;;;;;;;;;;;;;;;;;;4950981;28;19926;-82
2021/10/06 20:12:43;;;;;;;;;;;;;;;;;;4950719;28;19926;-82
2021/10/06 20:15:12;;;;;;;;;;;;;;;;;;4945852;28;19937;-85
2021/10/06 20:17:40;;;;;;;;;;;;;;;;;;4941353;28;20301;-82
2021/10/06 20:20:09;;;;;;;;;;;;;;;;;;4947804;28;19926;-83
2021/10/06 20:22:38;;;;;;;;;;;;;;;;;;4946082;28;19934;-82
2021/10/06 20:25:07;;;;;;;;;;;;;;;;;;4945147;28;19926;-82
2021/10/06 20:27:35;;;;;;;;;;;;;;;;;;4970596;28;19926;-82
2021/10/06 20:30:06;;;;;;;;;;;;;;;;;;4966478;28;19933;-83
2021/10/06 20:32:45;;;;;;;;;;;;;;;;;;4962454;28;19949;-83
2021/10/06 20:35:35;;;;;;;;;;;;;;;;;;4938908;28;19927;-85
2021/10/06 20:38:04;;;;;;;;;;;;;;;;;;4959319;28;19930;-83
2021/10/06 20:40:34;;;;;;;;;;;;;;;;;;4938854;29;19927;-84
2021/10/06 20:43:02;;;;;;;;;;;;;;;;;;4948426;28;19933;-85
2021/10/06 20:45:33;;;;;;;;;;;;;;;;;;4942961;28;19926;-87
2021/10/06 20:48:03;;;;;;;;;;;;;;;;;;4964695;28;19932;-86
2021/10/06 20:50:36;;;;;;;;;;;;;;;;;;4940788;28;19930;-87
2021/10/06 20:57:30;;;;;;;;;;;;;;;;;;4957577;28;19926;-90
2021/10/06 21:00:00;;;;;;;;;;;;;;;;;;4948380;28;19926;-89
2021/10/06 21:02:31;;;;;;;;;;;;;;;;;;4961920;28;19932;-87
2021/10/06 21:08:21;;;;;;;;;;;;;;;;;;4962493;28;20293;-89
2021/10/06 21:10:50;;;;;;;;;;;;;;;;;;4958822;28;19933;-92
2021/10/06 21:13:18;;;;;;;;;;;;;;;;;;4961483;28;19930;-88
2021/10/06 21:15:47;;;;;;;;;;;;;;;;;;4958306;28;19941;-88
2021/10/06 21:18:17;;;;;;;;;;;;;;;;;;4944121;28;19930;-90
2021/10/06 21:20:48;;;;;;;;;;;;;;;;;;4954271;28;19938;-88
2021/10/06 21:23:16;;;;;;;;;;;;;;;;;;4948511;28;19926;-91
2021/10/06 21:25:46;;;;;;;;;;;;;;;;;;4945089;28;19926;-87
2021/10/06 21:28:14;;;;;;;;;;;;;;;;;;4943824;28;20405;-90
2021/10/06 21:30:42;;;;;;;;;;;;;;;;;;4957491;28;20411;-88
2021/10/06 21:33:12;;;;;;;;;;;;;;;;;;4943130;28;19926;-85
2021/10/06 21:35:41;;;;;;;;;;;;;;;;;;4947211;28;19933;-89
2021/10/06 21:38:10;;;;;;;;;;;;;;;;;;4945764;28;19937;-86
2021/10/06 21:40:38;;;;;;;;;;;;;;;;;;4954102;28;19930;-88
2021/10/06 21:43:46;;;;;;;;;;;;;;;;;;4943605;28;19926;-90
2021/10/06 21:46:48;;;;;;;;;;;;;;;;;;4898558;29;19941;-89
2021/10/06 21:49:21;;;;;;;;;;;;;;;;;;4886041;29;19927;-90
2021/10/06 21:51:52;;;;;;;;;;;;;;;;;;4932294;28;19930;-86
2021/10/06 21:54:20;;;;;;;;;;;;;;;;;;4947804;28;19931;-87
2021/10/06 21:56:48;;;;;;;;;;;;;;;;;;4939104;28;19926;-88
2021/10/06 21:59:16;;;;;;;;;;;;;;;;;;4940845;28;20321;-85
2021/10/06 22:01:45;;;;;;;;;;;;;;;;;;4962771;28;19927;-89
2021/10/06 22:04:13;;;;;;;;;;;;;;;;;;4941224;28;19933;-86
2021/10/06 22:06:41;;;;;;;;;;;;;;;;;;4955978;28;19933;-89
2021/10/06 22:09:16;;;;;;;;;;;;;;;;;;4954565;28;19933;-88
2021/10/06 22:11:44;;;;;;;;;;;;;;;;;;4943044;28;19938;-88
2021/10/06 22:14:14;;;;;;;;;;;;;;;;;;4935724;28;19933;-87
2021/10/06 22:16:43;;;;;;;;;;;;;;;;;;4943269;28;19926;-86
2021/10/06 22:19:11;;;;;;;;;;;;;;;;;;4957383;28;19933;-85
2021/10/06 22:21:39;;;;;;;;;;;;;;;;;;4953147;28;19926;-85
2021/10/06 22:24:09;;;;;;;;;;;;;;;;;;4961235;28;19926;-85
2021/10/06 22:26:39;;;;;;;;;;;;;;;;;;4964547;28;19931;-85
2021/10/06 22:29:07;;;;;;;;;;;;;;;;;;4957876;28;19937;-88
2021/10/06 22:31:35;;;;;;;;;;;;;;;;;;4941782;28;19933;-85
2021/10/06 22:34:06;;;;;;;;;;;;;;;;;;4934548;28;20327;-84
2021/10/06 22:36:40;;;;;;;;;;;;;;;;;;4949890;28;19926;-88
2021/10/06 22:39:13;;;;;;;;;;;;;;;;;;4979911;28;19926;-87
2021/10/06 22:41:44;;;;;;;;;;;;;;;;;;4937321;28;19927;-88
2021/10/06 22:44:17;;;;;;;;;;;;;;;;;;4964990;28;20517;-86
2021/10/06 22:46:53;;;;;;;;;;;;;;;;;;4954894;28;19926;-85
2021/10/06 22:49:23;;;;;;;;;;;;;;;;;;4953135;28;19933;-88
2021/10/06 22:51:52;;;;;;;;;;;;;;;;;;4948590;28;19925;-87
2021/10/06 22:54:21;;;;;;;;;;;;;;;;;;4964976;28;19950;-90
2021/10/06 22:56:51;;;;;;;;;;;;;;;;;;4950320;28;20021;-87
2021/10/06 22:59:19;;;;;;;;;;;;;;;;;;4934281;29;19927;-91
2021/10/06 23:01:48;;;;;;;;;;;;;;;;;;4959493;28;20387;-87
2021/10/06 23:04:16;;;;;;;;;;;;;;;;;;4946839;28;19927;-88
2021/10/06 23:06:45;;;;;;;;;;;;;;;;;;4941779;28;19949;-87
2021/10/06 23:09:15;;;;;;;;;;;;;;;;;;4947640;28;19926;-88
2021/10/06 23:11:56;;;;;;;;;;;;;;;;;;4953180;28;19926;-92
2021/10/06 23:14:31;;;;;;;;;;;;;;;;;;4944276;28;20047;-88
2021/10/06 23:17:00;;;;;;;;;;;;;;;;;;4948540;29;19927;-88
2021/10/06 23:19:30;;;;;;;;;;;;;;;;;;4935533;28;19926;-89
2021/10/06 23:21:59;;;;;;;;;;;;;;;;;;4955942;28;19933;-89
2021/10/06 23:24:28;;;;;;;;;;;;;;;;;;4977513;28;19910;-93
2021/10/06 23:26:59;;;;;;;;;;;;;;;;;;4955328;28;20288;-87
2021/10/06 23:29:29;;;;;;;;;;;;;;;;;;4950350;28;19926;-90
2021/10/06 23:31:58;;;;;;;;;;;;;;;;;;4950364;28;19933;-90
2021/10/06 23:34:27;;;;;;;;;;;;;;;;;;4965178;28;19926;-93
2021/10/06 23:36:55;;;;;;;;;;;;;;;;;;4956227;28;20299;-86
2021/10/06 23:39:24;;;;;;;;;;;;;;;;;;4964844;28;19926;-90
2021/10/06 23:41:54;;;;;;;;;;;;;;;;;;4941869;28;19926;-90
2021/10/06 23:44:34;;;;;;;;;;;;;;;;;;4963065;28;19926;-92
2021/10/06 23:47:28;;;;;;;;;;;;;;;;;;4967646;28;19926;-90
2021/10/06 23:50:09;;;;;;;;;;;;;;;;;;4929737;28;19926;-90
2021/10/06 23:52:41;;;;;;;;;;;;;;;;;;4948209;28;19933;-89
2021/10/06 23:55:11;;;;;;;;;;;;;;;;;;4938572;28;19933;-91
2021/10/06 23:57:40;;;;;;;;;;;;;;;;;;4937896;28;20419;-88
